Time;durP1;ratioP1;P1;durP2;ratioP2;P2;SDS_P1;SDS_P2;PMS_P1;PMS_P2;Temp;Humidity;BMP_temperature;BMP_pressure;BME280_temperature;BME280_humidity;BME280_pressure;Samples;Min_cycle;Max_cycle;Signal;HPM_P1;HPM_P2
2023/08/21 00:00:55;;;;;;;9.10;1.97;;;22.20;99.90;;;;;;7281841;19;20192;-75
2023/08/21 00:03:22;;;;;;;10.57;1.90;;;22.10;99.90;;;;;;7301532;19;20189;-75
2023/08/21 00:05:48;;;;;;;8.70;1.70;;;21.90;99.90;;;;;;7283428;19;20188;-75
2023/08/21 00:08:13;;;;;;;10.47;1.97;;;21.80;99.90;;;;;;7281396;19;20210;-75
2023/08/21 00:10:40;;;;;;;9.77;2.03;;;21.80;99.90;;;;;;7280235;19;20207;-75
2023/08/21 00:13:06;;;;;;;10.00;2.17;;;21.80;99.90;;;;;;7281283;19;20537;-75
2023/08/21 00:15:37;;;;;;;9.27;2.23;;;21.80;99.90;;;;;;7279808;19;20200;-75
2023/08/21 00:18:03;;;;;;;9.13;2.07;;;21.80;99.90;;;;;;7279558;19;20206;-75
2023/08/21 00:20:28;;;;;;;8.20;1.87;;;21.90;99.90;;;;;;7279563;19;21004;-75
2023/08/21 00:22:54;;;;;;;8.67;2.10;;;21.80;99.90;;;;;;7292570;19;20193;-75
2023/08/21 00:25:21;;;;;;;7.13;1.77;;;21.80;99.90;;;;;;7298619;19;20215;-76
2023/08/21 00:27:47;;;;;;;7.87;2.27;;;21.80;99.90;;;;;;7281566;19;20185;-76
2023/08/21 00:30:14;;;;;;;11.47;2.30;;;21.80;99.90;;;;;;7279780;19;20664;-76
2023/08/21 00:32:41;;;;;;;10.97;2.00;;;21.80;99.90;;;;;;7280598;19;20185;-76
2023/08/21 00:35:07;;;;;;;9.63;1.97;;;21.90;99.90;;;;;;7277944;19;20185;-76
2023/08/21 00:37:33;;;;;;;10.83;2.00;;;21.80;99.90;;;;;;7280490;19;20196;-75
2023/08/21 00:39:59;;;;;;;11.90;2.23;;;21.90;99.90;;;;;;7280307;19;20632;-75
2023/08/21 00:42:25;;;;;;;8.70;2.00;;;21.90;99.90;;;;;;7288083;19;20192;-75
2023/08/21 00:44:50;;;;;;;8.50;1.80;;;21.90;99.90;;;;;;7300654;19;20561;-75
2023/08/21 00:47:16;;;;;;;11.83;2.10;;;21.90;99.90;;;;;;7279399;19;20217;-75
2023/08/21 00:49:43;;;;;;;9.57;2.10;;;21.90;99.90;;;;;;7280235;19;20185;-76
2023/08/21 00:52:12;;;;;;;9.00;2.33;;;22.00;99.90;;;;;;7278697;19;20192;-75
2023/08/21 00:54:38;;;;;;;10.50;2.13;;;22.00;99.90;;;;;;7279567;19;20192;-75
2023/08/21 00:57:04;;;;;;;11.17;2.23;;;21.90;99.90;;;;;;7279420;19;20213;-76
2023/08/21 00:59:30;;;;;;;9.43;2.30;;;21.80;99.90;;;;;;7279470;19;20284;-75
2023/08/21 01:01:56;;;;;;;10.97;2.47;;;21.70;99.90;;;;;;7277686;19;20252;-75
2023/08/21 01:04:22;;;;;;;10.67;2.23;;;21.60;99.90;;;;;;7299643;19;20622;-75
2023/08/21 01:06:49;;;;;;;8.80;2.00;;;21.50;99.90;;;;;;7280612;19;20187;-75
2023/08/21 01:09:21;;;;;;;12.90;2.47;;;21.30;99.90;;;;;;7280757;19;20538;-75
2023/08/21 01:12:00;;;;;;;12.20;2.57;;;21.30;99.90;;;;;;7279430;19;20179;-75
2023/08/21 01:14:31;;;;;;;7.87;2.30;;;21.30;99.90;;;;;;7259469;19;20203;-76
2023/08/21 01:16:59;;;;;;;10.63;2.53;;;21.30;99.90;;;;;;7278219;19;20904;-75
2023/08/21 01:19:47;;;;;;;10.37;2.57;;;21.20;99.90;;;;;;7282333;19;20201;-75
2023/08/21 01:22:12;;;;;;;10.73;2.40;;;21.30;99.90;;;;;;7279032;19;20987;-75
2023/08/21 01:24:38;;;;;;;8.77;2.10;;;21.30;99.90;;;;;;7278891;19;20192;-75
2023/08/21 01:27:04;;;;;;;12.00;2.60;;;21.20;99.90;;;;;;7278885;19;20188;-75
2023/08/21 01:29:31;;;;;;;8.43;2.20;;;21.20;99.90;;;;;;7278890;19;20225;-75
2023/08/21 01:32:18;;;;;;;10.30;2.30;;;21.10;99.90;;;;;;7279046;19;20189;-76
2023/08/21 01:34:47;;;;;;;11.63;2.13;;;21.10;99.90;;;;;;7278706;19;20271;-75
2023/08/21 01:37:13;;;;;;;9.30;2.40;;;20.90;99.90;;;;;;7278322;19;20648;-75
2023/08/21 01:39:39;;;;;;;10.80;2.57;;;20.80;99.90;;;;;;7276737;19;20184;-75
2023/08/21 01:42:05;;;;;;;11.87;2.47;;;20.70;99.90;;;;;;7279448;19;20231;-76
2023/08/21 01:44:31;;;;;;;7.50;2.17;;;20.70;99.90;;;;;;7276867;19;20204;-76
2023/08/21 01:46:56;;;;;;;9.33;2.43;;;20.60;99.90;;;;;;7278136;19;20188;-75
2023/08/21 01:49:22;;;;;;;8.97;2.23;;;20.60;99.90;;;;;;7300627;19;20675;-76
2023/08/21 01:51:48;;;;;;;10.73;2.27;;;20.60;99.90;;;;;;7278252;19;20521;-76
2023/08/21 01:54:14;;;;;;;7.77;2.40;;;20.60;99.90;;;;;;7277308;19;20198;-75
2023/08/21 01:56:40;;;;;;;9.37;2.20;;;20.60;99.90;;;;;;7275690;19;20260;-76
2023/08/21 01:59:06;;;;;;;10.97;2.30;;;20.50;99.90;;;;;;7277642;19;20192;-75
2023/08/21 02:01:33;;;;;;;5.93;1.83;;;20.50;99.90;;;;;;7277529;19;20213;-76
2023/08/21 02:03:58;;;;;;;6.47;2.00;;;20.30;99.90;;;;;;7276942;19;20552;-75
2023/08/21 02:06:24;;;;;;;10.83;2.40;;;20.20;99.90;;;;;;7300565;19;20253;-75
2023/08/21 02:08:50;;;;;;;11.67;2.63;;;20.20;99.90;;;;;;7297694;19;20286;-75
2023/08/21 02:11:17;;;;;;;12.87;2.73;;;20.30;99.90;;;;;;7284201;19;20203;-75
2023/08/21 02:13:42;;;;;;;10.50;2.43;;;20.40;99.90;;;;;;7284352;19;20259;-76
2023/08/21 02:16:08;;;;;;;10.27;2.30;;;20.40;99.90;;;;;;7282993;19;20256;-75
2023/08/21 02:18:34;;;;;;;12.43;2.57;;;20.40;99.90;;;;;;7284638;19;20184;-76
2023/08/21 02:21:01;;;;;;;11.90;2.37;;;20.50;99.90;;;;;;7285191;19;20734;-76
2023/08/21 02:23:28;;;;;;;10.87;2.13;;;20.50;99.90;;;;;;7283815;19;20193;-76
2023/08/21 02:25:54;;;;;;;9.33;2.90;;;20.50;99.90;;;;;;7301622;19;20542;-76
2023/08/21 02:28:20;;;;;;;11.27;2.13;;;20.40;99.90;;;;;;7297345;19;20652;-76
2023/08/21 02:30:47;;;;;;;8.23;2.03;;;20.40;99.90;;;;;;7281309;19;20196;-75
2023/08/21 02:33:13;;;;;;;12.53;3.13;;;20.30;99.90;;;;;;7283913;19;20207;-75
2023/08/21 02:35:39;;;;;;;12.10;2.33;;;20.30;99.90;;;;;;7284445;19;20225;-75
2023/08/21 02:38:05;;;;;;;10.50;2.40;;;20.30;99.90;;;;;;7282275;19;20180;-76
2023/08/21 02:40:35;;;;;;;9.43;2.73;;;20.30;99.90;;;;;;7283444;19;20260;-76
2023/08/21 02:43:00;;;;;;;8.07;2.30;;;20.30;99.90;;;;;;7282537;19;20284;-75
2023/08/21 02:45:26;;;;;;;10.30;2.63;;;20.30;99.90;;;;;;7283730;19;20700;-75
2023/08/21 02:47:52;;;;;;;9.90;2.67;;;20.40;99.90;;;;;;7306400;19;20711;-75
2023/08/21 02:50:18;;;;;;;8.07;2.37;;;20.30;99.90;;;;;;7282906;19;20191;-75
2023/08/21 02:52:43;;;;;;;8.10;2.57;;;20.20;99.90;;;;;;7283389;19;20206;-76
2023/08/21 02:55:09;;;;;;;9.67;2.13;;;20.10;99.90;;;;;;7281829;19;20293;-75
2023/08/21 02:57:35;;;;;;;13.93;2.80;;;20.10;99.90;;;;;;7283281;19;20188;-75
2023/08/21 03:00:01;;;;;;;8.43;2.60;;;20.00;99.90;;;;;;7281234;19;20536;-75
2023/08/21 03:02:27;;;;;;;12.20;2.40;;;20.00;99.90;;;;;;7282779;19;20192;-75
2023/08/21 03:04:52;;;;;;;11.00;2.70;;;20.00;99.90;;;;;;7303274;19;20224;-76
2023/08/21 03:07:21;;;;;;;7.57;2.30;;;20.00;99.90;;;;;;7284788;19;20186;-76
2023/08/21 03:09:48;;;;;;;10.17;2.47;;;20.00;99.90;;;;;;7282089;19;20235;-75
2023/08/21 03:12:14;;;;;;;11.77;2.40;;;19.90;99.90;;;;;;7283514;19;20571;-76
2023/08/21 03:14:40;;;;;;;12.93;2.83;;;19.90;99.90;;;;;;7283142;19;20191;-76
2023/08/21 03:17:06;;;;;;;10.13;2.57;;;19.90;99.90;;;;;;7281634;19;20198;-76
2023/08/21 03:19:32;;;;;;;12.50;2.63;;;19.90;99.90;;;;;;7281958;19;20254;-76
2023/08/21 03:21:58;;;;;;;10.30;2.47;;;19.90;99.90;;;;;;7281760;19;20251;-76
2023/08/21 03:24:24;;;;;;;9.03;2.40;;;19.80;99.90;;;;;;7305675;19;20182;-75
2023/08/21 03:26:49;;;;;;;13.83;2.70;;;19.80;99.90;;;;;;7283227;19;20181;-76
2023/08/21 03:29:15;;;;;;;8.50;2.47;;;19.70;99.90;;;;;;7284163;19;20265;-76
2023/08/21 03:31:41;;;;;;;9.07;2.40;;;19.70;99.90;;;;;;7279854;19;20184;-75
2023/08/21 03:34:08;;;;;;;10.53;2.67;;;19.70;99.90;;;;;;7282277;19;20188;-76
2023/08/21 03:36:36;;;;;;;11.97;2.67;;;19.70;99.90;;;;;;7280654;19;20183;-76
2023/08/21 03:39:05;;;;;;;10.50;2.93;;;19.60;99.90;;;;;;7282090;19;20214;-75
2023/08/21 03:41:35;;;;;;;8.03;2.40;;;19.60;99.90;;;;;;7281911;19;20226;-75
2023/08/21 03:44:00;;;;;;;9.13;2.27;;;19.50;99.90;;;;;;7282237;19;20213;-75
2023/08/21 03:46:26;;;;;;;7.13;2.13;;;19.40;99.90;;;;;;7282344;19;20198;-75
2023/08/21 03:48:54;;;;;;;9.80;2.60;;;19.40;99.90;;;;;;7301001;19;20628;-76
2023/08/21 03:51:20;;;;;;;7.57;2.63;;;19.40;99.90;;;;;;7292293;19;20318;-76
2023/08/21 03:53:46;;;;;;;9.37;3.07;;;19.40;99.90;;;;;;7280484;19;20192;-76
2023/08/21 03:56:11;;;;;;;10.93;2.90;;;19.40;99.90;;;;;;7279156;19;20181;-76
2023/08/21 03:58:37;;;;;;;13.97;2.90;;;19.40;99.90;;;;;;7280663;19;20316;-76
2023/08/21 04:01:03;;;;;;;12.00;3.30;;;19.40;99.90;;;;;;7279368;19;20219;-76
2023/08/21 04:03:29;;;;;;;9.43;3.30;;;19.40;99.90;;;;;;7280642;19;20297;-75
2023/08/21 04:05:56;;;;;;;16.97;3.10;;;19.50;99.90;;;;;;7288722;19;20197;-75
2023/08/21 04:08:22;;;;;;;11.57;3.10;;;19.40;99.90;;;;;;7303933;19;20193;-76
2023/08/21 04:10:48;;;;;;;11.90;2.80;;;19.30;99.90;;;;;;7281256;19;20203;-76
2023/08/21 04:13:14;;;;;;;10.90;2.80;;;19.30;99.90;;;;;;7280090;19;20231;-76
2023/08/21 04:15:44;;;;;;;13.07;2.87;;;19.20;99.90;;;;;;7278356;19;20566;-76
2023/08/21 04:18:10;;;;;;;14.67;3.17;;;19.20;99.90;;;;;;7280450;19;20546;-75
2023/08/21 04:20:36;;;;;;;11.30;2.77;;;19.20;99.90;;;;;;7280566;19;20200;-75
2023/08/21 04:23:02;;;;;;;12.20;3.17;;;19.10;99.90;;;;;;7281410;19;20196;-76
2023/08/21 04:25:28;;;;;;;10.97;3.00;;;19.10;99.90;;;;;;7284538;19;20185;-74
2023/08/21 04:27:54;;;;;;;13.50;3.17;;;19.10;99.90;;;;;;7307457;19;20557;-74
2023/08/21 04:30:21;;;;;;;14.53;3.23;;;19.20;99.90;;;;;;7279248;19;20286;-76
2023/08/21 04:32:47;;;;;;;13.23;3.07;;;19.20;99.90;;;;;;7280207;19;20218;-76
2023/08/21 04:35:15;;;;;;;9.53;3.17;;;19.20;99.90;;;;;;7281139;19;20284;-75
2023/08/21 04:37:47;;;;;;;13.10;2.93;;;19.10;99.90;;;;;;7280171;19;20192;-76
2023/08/21 04:40:17;;;;;;;10.27;2.93;;;19.10;99.90;;;;;;7281414;19;20305;-76
2023/08/21 04:42:43;;;;;;;15.83;3.53;;;19.10;99.90;;;;;;7280372;19;20189;-76
2023/08/21 04:45:10;;;;;;;11.97;3.00;;;19.00;99.90;;;;;;7279874;19;20672;-76
2023/08/21 04:47:37;;;;;;;12.13;3.47;;;19.00;99.90;;;;;;7282053;19;20188;-77
2023/08/21 04:50:03;;;;;;;16.10;3.00;;;19.00;99.90;;;;;;7277896;19;20188;-76
2023/08/21 04:52:29;;;;;;;14.20;3.27;;;19.10;99.90;;;;;;7268369;19;20623;-76
2023/08/21 04:54:55;;;;;;;13.30;2.80;;;19.10;99.90;;;;;;7288090;19;20182;-76
2023/08/21 04:57:21;;;;;;;16.17;3.13;;;19.10;99.90;;;;;;7300438;19;20696;-76
2023/08/21 04:59:48;;;;;;;9.77;2.67;;;19.10;99.90;;;;;;7276594;19;20200;-76
2023/08/21 05:02:14;;;;;;;11.67;3.03;;;19.10;99.90;;;;;;7277479;19;20661;-77
2023/08/21 05:04:40;;;;;;;13.33;3.40;;;19.20;99.90;;;;;;7277561;19;20201;-75
2023/08/21 05:07:06;;;;;;;14.10;3.43;;;19.20;99.90;;;;;;7279207;19;20185;-75
2023/08/21 05:09:32;;;;;;;14.00;2.97;;;19.10;99.90;;;;;;7278655;19;20337;-75
2023/08/21 05:11:58;;;;;;;11.30;2.60;;;19.20;99.90;;;;;;7278627;19;20549;-75
2023/08/21 05:14:24;;;;;;;10.13;2.87;;;19.30;99.90;;;;;;7295997;19;20959;-75
2023/08/21 05:16:50;;;;;;;9.30;2.97;;;19.40;99.90;;;;;;7290536;19;20205;-75
2023/08/21 05:19:18;;;;;;;11.93;2.83;;;19.40;99.90;;;;;;7278819;19;20201;-75
2023/08/21 05:21:45;;;;;;;14.43;2.90;;;19.40;99.90;;;;;;7277670;19;20186;-76
2023/08/21 05:24:11;;;;;;;14.07;2.87;;;19.40;99.90;;;;;;7278911;19;20562;-75
2023/08/21 05:26:40;;;;;;;10.97;2.87;;;19.50;99.90;;;;;;7279683;19;20189;-76
2023/08/21 05:29:06;;;;;;;13.13;2.97;;;19.80;99.90;;;;;;7277838;19;20197;-76
2023/08/21 05:31:32;;;;;;;12.47;2.60;;;20.70;99.90;;;;;;7276908;19;20207;-76
2023/08/21 05:33:58;;;;;;;12.50;2.87;;;21.80;99.90;;;;;;7278085;19;20512;-75
2023/08/21 05:36:24;;;;;;;9.23;2.60;;;22.80;99.90;;;;;;7299661;19;20192;-75
2023/08/21 05:38:51;;;;;;;12.43;2.10;;;23.60;99.90;;;;;;7281376;19;20184;-75
2023/08/21 05:41:18;;;;;;;7.23;2.10;;;24.10;99.90;;;;;;7283498;19;20295;-74
2023/08/21 05:43:45;;;;;;;11.17;2.30;;;24.80;99.90;;;;;;7285110;19;20278;-74
2023/08/21 05:46:12;;;;;;;8.27;1.80;;;25.60;99.90;;;;;;7284725;19;20538;-75
2023/08/21 05:48:38;;;;;;;11.50;2.10;;;26.20;99.90;;;;;;7284816;19;20180;-75
2023/08/21 05:51:05;;;;;;;12.60;2.57;;;26.90;99.90;;;;;;7284914;19;20184;-74
2023/08/21 05:53:31;;;;;;;9.38;2.25;;;27.70;99.90;;;;;;7284153;19;20264;-75
2023/08/21 05:55:57;;;;;;;8.30;1.80;;;28.30;99.90;;;;;;7284994;19;20344;-76
2023/08/21 05:58:23;;;;;;;9.68;2.35;;;28.60;99.90;;;;;;7305568;19;20200;-74
2023/08/21 06:00:49;;;;;;;11.20;2.28;;;29.00;99.90;;;;;;7283425;19;20181;-76
2023/08/21 06:03:15;;;;;;;10.05;2.25;;;28.20;99.90;;;;;;7283509;19;20205;-74
2023/08/21 06:05:54;;;;;;;12.20;2.20;;;27.50;99.90;;;;;;7285827;19;20184;-76
2023/08/21 06:08:20;;;;;;;12.65;2.67;;;27.00;99.90;;;;;;7285878;19;20191;-76
2023/08/21 06:10:51;;;;;;;10.93;2.45;;;26.90;99.90;;;;;;7284801;19;20253;-76
2023/08/21 06:13:17;;;;;;;8.93;2.35;;;27.80;99.90;;;;;;7284567;19;21016;-75
2023/08/21 06:15:47;;;;;;;10.18;2.47;;;28.80;99.90;;;;;;7284165;19;20197;-77
2023/08/21 06:18:17;;;;;;;14.60;2.78;;;28.90;99.90;;;;;;7285041;19;20199;-76
2023/08/21 06:20:46;;;;;;;10.63;2.47;;;29.40;99.90;;;;;;7283890;19;20277;-75
2023/08/21 06:23:12;;;;;;;13.57;2.80;;;29.50;99.90;;;;;;7284310;19;20260;-75
2023/08/21 06:25:38;;;;;;;14.65;2.75;;;29.00;99.90;;;;;;7284949;19;20305;-76
2023/08/21 06:28:04;;;;;;;10.30;2.70;;;29.10;99.90;;;;;;7284746;19;20196;-76
2023/08/21 06:30:31;;;;;;;12.68;3.42;;;29.70;99.90;;;;;;7282155;19;20199;-75
2023/08/21 06:32:57;;;;;;;13.30;2.72;;;30.30;99.90;;;;;;7284312;19;20215;-76
2023/08/21 06:35:25;;;;;;;12.60;2.80;;;30.90;99.90;;;;;;7299453;19;20193;-76
2023/08/21 06:37:54;;;;;;;15.60;3.67;;;30.90;99.90;;;;;;7304662;19;20499;-76
2023/08/21 06:40:20;;;;;;;12.63;2.75;;;30.70;99.90;;;;;;7284480;19;20202;-76
2023/08/21 06:42:46;;;;;;;15.48;3.50;;;31.10;99.90;;;;;;7284395;19;20977;-76
2023/08/21 06:45:13;;;;;;;16.02;3.50;;;31.80;99.90;;;;;;7283971;19;20195;-76
2023/08/21 06:47:40;;;;;;;12.23;2.80;;;32.40;99.90;;;;;;7284407;19;20253;-76
2023/08/21 06:50:06;;;;;;;11.68;3.28;;;33.30;99.90;;;;;;7280924;19;20603;-76
2023/08/21 06:52:32;;;;;;;13.55;3.20;;;33.90;99.90;;;;;;7282598;19;20202;-76
2023/08/21 06:54:57;;;;;;;11.55;2.80;;;34.70;99.90;;;;;;7284383;19;20256;-76
2023/08/21 06:57:23;;;;;;;15.45;3.40;;;35.60;99.90;;;;;;7305390;19;20992;-76
2023/08/21 06:59:49;;;;;;;12.85;2.97;;;36.30;98.30;;;;;;7282349;19;20173;-76
2023/08/21 07:02:15;;;;;;;12.38;3.35;;;36.00;95.90;;;;;;7279278;19;21024;-75
2023/08/21 07:04:40;;;;;;;12.95;3.25;;;36.20;95.50;;;;;;7282546;19;20204;-76
2023/08/21 07:07:06;;;;;;;13.43;3.22;;;36.90;93.10;;;;;;7282386;19;20211;-76
2023/08/21 07:09:32;;;;;;;12.60;3.38;;;36.70;93.20;;;;;;7281802;19;20248;-76
2023/08/21 07:11:57;;;;;;;12.60;3.45;;;36.80;92.50;;;;;;7282049;19;20189;-75
2023/08/21 07:14:23;;;;;;;16.77;3.40;;;36.90;90.10;;;;;;7305236;19;20193;-77
2023/08/21 07:16:49;;;;;;;12.65;3.15;;;36.90;90.50;;;;;;7282413;19;20184;-77
2023/08/21 07:19:14;;;;;;;13.63;3.40;;;37.70;88.90;;;;;;7284529;19;20194;-77
2023/08/21 07:21:40;;;;;;;12.55;3.25;;;38.90;86.70;;;;;;7282730;19;20864;-77
2023/08/21 07:24:06;;;;;;;12.93;3.33;;;39.30;82.30;;;;;;7282248;19;20181;-77
2023/08/21 07:26:32;;;;;;;10.07;3.22;;;39.80;80.00;;;;;;7281448;19;20189;-76
2023/08/21 07:28:58;;;;;;;14.43;3.70;;;40.00;76.70;;;;;;7282942;19;20188;-76
2023/08/21 07:31:23;;;;;;;13.02;3.80;;;39.50;75.00;;;;;;7304276;19;20205;-76
2023/08/21 07:33:49;;;;;;;9.20;3.35;;;40.10;74.90;;;;;;7281368;19;20292;-76
2023/08/21 07:36:17;;;;;;;13.68;4.13;;;40.40;72.60;;;;;;7282722;19;20198;-76
2023/08/21 07:38:45;;;;;;;13.32;3.67;;;39.90;72.50;;;;;;7283082;19;20189;-76
2023/08/21 07:41:12;;;;;;;16.95;4.43;;;38.60;73.80;;;;;;7282112;19;20188;-77
2023/08/21 07:43:41;;;;;;;13.13;3.80;;;39.40;72.80;;;;;;7281900;19;20184;-76
2023/08/21 07:46:09;;;;;;;12.27;3.92;;;38.20;73.80;;;;;;7283689;19;20188;-76
2023/08/21 07:48:35;;;;;;;13.32;4.25;;;38.30;75.00;;;;;;7281305;19;20601;-77
2023/08/21 07:51:02;;;;;;;15.10;4.25;;;37.80;74.20;;;;;;7281864;19;20185;-76
2023/08/21 07:53:28;;;;;;;13.43;3.85;;;38.60;74.40;;;;;;7280915;19;20181;-77
2023/08/21 07:55:54;;;;;;;15.02;3.83;;;38.50;73.60;;;;;;7304249;19;20177;-76
2023/08/21 07:58:20;;;;;;;12.32;3.97;;;39.10;74.20;;;;;;7281082;19;20189;-77
2023/08/21 08:00:46;;;;;;;12.30;3.15;;;39.80;72.10;;;;;;7281474;19;20213;-77
2023/08/21 08:03:14;;;;;;;14.73;3.75;;;40.50;70.50;;;;;;7279118;19;20249;-76
2023/08/21 08:05:41;;;;;;;15.50;3.80;;;41.30;69.60;;;;;;7282628;19;20648;-77
2023/08/21 08:08:06;;;;;;;13.93;3.53;;;40.00;69.50;;;;;;7281505;19;20197;-76
2023/08/21 08:10:32;;;;;;;11.85;3.47;;;40.80;70.20;;;;;;7280802;19;20210;-76
2023/08/21 08:12:58;;;;;;;19.35;3.72;;;40.20;69.90;;;;;;7280146;19;21068;-75
2023/08/21 08:15:23;;;;;;;10.55;3.22;;;39.80;70.90;;;;;;7302002;19;20188;-76
2023/08/21 08:17:53;;;;;;;11.80;3.10;;;39.30;70.90;;;;;;7279836;19;20661;-76
2023/08/21 08:20:19;;;;;;;11.05;3.38;;;40.60;70.00;;;;;;7282152;19;20189;-76
2023/08/21 08:22:45;;;;;;;12.30;3.20;;;41.60;67.90;;;;;;7278812;19;21392;-76
2023/08/21 08:25:10;;;;;;;13.30;3.58;;;42.00;67.60;;;;;;7281530;19;20209;-76
2023/08/21 08:27:36;;;;;;;11.13;2.65;;;42.10;65.70;;;;;;7282002;19;20244;-76
2023/08/21 08:30:03;;;;;;;9.13;3.03;;;42.60;65.70;;;;;;7280834;19;20189;-76
2023/08/21 08:32:29;;;;;;;12.20;3.33;;;42.30;63.20;;;;;;7280353;19;20344;-76
2023/08/21 08:34:55;;;;;;;16.30;3.85;;;42.90;62.20;;;;;;7298838;19;20638;-76
2023/08/21 08:37:21;;;;;;;13.82;3.70;;;43.10;62.60;;;;;;7295157;19;20197;-76
2023/08/21 08:39:47;;;;;;;10.85;3.72;;;42.30;62.70;;;;;;7282624;19;20313;-76
2023/08/21 08:42:14;;;;;;;16.00;3.72;;;41.10;65.00;;;;;;7279888;19;20184;-76
2023/08/21 08:44:41;;;;;;;11.68;3.88;;;42.20;65.00;;;;;;7282180;19;20200;-76
2023/08/21 08:47:11;;;;;;;14.13;4.00;;;42.90;62.80;;;;;;7279823;19;20546;-77
2023/08/21 08:49:40;;;;;;;10.82;3.38;;;43.70;60.50;;;;;;7280409;19;20874;-76
2023/08/21 08:52:07;;;;;;;13.18;4.20;;;44.30;59.30;;;;;;7278591;19;20628;-75
2023/08/21 08:54:35;;;;;;;14.25;4.40;;;44.40;59.20;;;;;;7278711;19;20195;-76
2023/08/21 08:57:01;;;;;;;12.45;3.90;;;42.90;59.10;;;;;;7279755;19;20198;-76
2023/08/21 08:59:30;;;;;;;14.48;3.70;;;42.00;61.80;;;;;;7279344;19;20188;-76
2023/08/21 09:01:56;;;;;;;11.20;3.10;;;40.90;63.70;;;;;;7285459;19;20224;-76
2023/08/21 09:04:22;;;;;;;12.98;3.60;;;41.60;62.50;;;;;;7299225;19;20225;-75
2023/08/21 09:06:48;;;;;;;11.20;3.47;;;41.60;63.00;;;;;;7280799;19;20215;-75
2023/08/21 09:09:14;;;;;;;10.85;2.95;;;42.60;62.30;;;;;;7278904;19;20180;-75
2023/08/21 09:11:45;;;;;;;11.32;2.70;;;43.50;60.50;;;;;;7278538;19;20197;-75
2023/08/21 09:14:11;;;;;;;12.43;3.10;;;44.20;58.90;;;;;;7276743;19;20180;-76
2023/08/21 09:16:37;;;;;;;16.88;3.28;;;44.70;58.00;;;;;;7278361;19;20185;-76
2023/08/21 09:19:03;;;;;;;10.80;2.90;;;44.90;57.00;;;;;;7278614;19;20618;-76
2023/08/21 09:21:29;;;;;;;9.18;2.50;;;44.40;57.20;;;;;;7278970;19;20556;-76
2023/08/21 09:23:59;;;;;;;11.90;2.70;;;44.60;56.00;;;;;;7299494;19;20494;-77
2023/08/21 09:26:26;;;;;;;10.52;3.08;;;44.60;57.20;;;;;;7273828;19;20192;-76
2023/08/21 09:28:53;;;;;;;10.63;2.67;;;44.70;56.20;;;;;;7296228;19;20694;-76
2023/08/21 09:31:23;;;;;;;10.75;2.72;;;45.00;55.80;;;;;;7278273;19;20199;-76
2023/08/21 09:33:57;;;;;;;11.10;2.40;;;45.10;56.00;;;;;;7277391;19;20187;-77
2023/08/21 09:36:24;;;;;;;9.50;2.78;;;44.50;54.40;;;;;;7278864;19;20205;-77
2023/08/21 09:38:52;;;;;;;10.07;2.60;;;43.50;57.00;;;;;;7278527;19;20201;-78
2023/08/21 09:41:22;;;;;;;9.07;2.38;;;43.50;56.20;;;;;;7278855;19;20222;-77
2023/08/21 09:43:48;;;;;;;7.47;1.92;;;43.40;56.10;;;;;;7276661;19;20181;-77
2023/08/21 09:46:18;;;;;;;5.68;1.33;;;43.60;53.10;;;;;;7277386;19;20622;-77
2023/08/21 09:48:46;;;;;;;7.15;1.33;;;42.90;52.20;;;;;;7277677;19;20198;-77
2023/08/21 09:51:12;;;;;;;10.35;2.15;;;43.40;52.60;;;;;;7278682;19;20189;-77
2023/08/21 09:53:39;;;;;;;10.10;2.28;;;43.60;54.70;;;;;;7274000;19;20188;-77
2023/08/21 09:56:06;;;;;;;9.15;2.08;;;43.70;53.90;;;;;;7279082;19;20188;-77
2023/08/21 09:58:32;;;;;;;8.52;1.73;;;44.30;53.10;;;;;;7277033;19;20182;-77
2023/08/21 10:00:59;;;;;;;8.52;1.60;;;45.10;52.60;;;;;;7277532;19;20181;-76
2023/08/21 10:03:26;;;;;;;8.80;1.45;;;45.40;51.60;;;;;;7298499;19;20665;-79
2023/08/21 10:05:55;;;;;;;9.25;1.40;;;44.60;48.80;;;;;;7278530;19;20184;-79
2023/08/21 10:08:25;;;;;;;10.60;1.65;;;44.20;50.10;;;;;;7281875;19;20185;-79
2023/08/21 10:10:51;;;;;;;8.02;1.50;;;43.80;50.20;;;;;;7279878;19;20631;-78
2023/08/21 10:13:18;;;;;;;7.43;1.20;;;43.30;51.00;;;;;;7280437;19;20566;-78
2023/08/21 10:15:44;;;;;;;7.60;1.38;;;43.80;51.50;;;;;;7279824;19;20185;-78
2023/08/21 10:18:33;;;;;;;5.82;1.60;;;43.60;49.90;;;;;;7279915;19;20264;-79
2023/08/21 10:21:12;;;;;;;6.35;1.30;;;44.10;50.00;;;;;;7258992;19;20310;-78
2023/08/21 10:23:39;;;;;;;7.03;1.40;;;44.40;50.00;;;;;;7279743;19;21060;-79
2023/08/21 10:26:07;;;;;;;4.97;1.00;;;42.70;50.10;;;;;;7282774;19;20192;-78
2023/08/21 10:28:59;;;;;;;7.03;1.25;;;40.80;53.00;;;;;;7286415;19;20188;-77
2023/08/21 10:31:28;;;;;;;5.13;1.25;;;40.00;53.80;;;;;;7286997;19;20526;-79
2023/08/21 10:33:54;;;;;;;4.22;1.02;;;40.30;54.00;;;;;;7286554;19;20200;-79
2023/08/21 10:36:40;;;;;;;4.68;0.95;;;40.80;52.30;;;;;;7287470;19;20208;-79
2023/08/21 10:39:22;;;;;;;7.68;1.15;;;42.00;51.10;;;;;;7183976;19;2004647;-78
2023/08/21 10:41:59;;;;;;;5.82;1.10;;;42.50;50.00;;;;;;7286115;19;20237;-79
2023/08/21 10:44:48;;;;;;;3.97;0.90;;;41.30;49.30;;;;;;7283745;19;20672;-77
2023/08/21 10:47:31;;;;;;;3.15;0.93;;;39.50;52.20;;;;;;7286105;19;20197;-77
2023/08/21 10:50:08;;;;;;;5.43;1.20;;;39.50;52.60;;;;;;7264245;19;20601;-78
2023/08/21 10:52:39;;;;;;;6.15;1.00;;;37.30;55.90;;;;;;7285984;19;20198;-78
2023/08/21 10:55:05;;;;;;;6.32;1.13;;;36.70;57.90;;;;;;7288838;19;20188;-77
2023/08/21 10:57:32;;;;;;;5.93;1.00;;;37.20;58.00;;;;;;7290243;19;20295;-79
2023/08/21 11:00:00;;;;;;;4.70;1.00;;;37.20;55.60;;;;;;7286720;19;20241;-77
2023/08/21 11:02:31;;;;;;;5.63;0.90;;;38.80;57.10;;;;;;7294634;19;20312;-78
2023/08/21 11:04:59;;;;;;;3.58;0.90;;;40.30;53.70;;;;;;7285583;19;20192;-78
2023/08/21 11:07:25;;;;;;;6.00;1.02;;;41.70;53.10;;;;;;7307377;19;20189;-79
2023/08/21 11:09:51;;;;;;;7.43;1.00;;;42.10;53.30;;;;;;7286364;19;20574;-79
2023/08/21 11:12:22;;;;;;;5.03;0.88;;;42.00;51.60;;;;;;7283761;19;20577;-78
2023/08/21 11:14:49;;;;;;;5.53;1.13;;;42.50;51.40;;;;;;7284972;19;20185;-76
2023/08/21 11:17:15;;;;;;;4.55;1.00;;;42.80;50.00;;;;;;7284835;19;20709;-79
2023/08/21 11:19:42;;;;;;;4.43;1.10;;;42.50;52.00;;;;;;7286422;19;20181;-79
2023/08/21 11:22:08;;;;;;;6.05;1.45;;;42.40;52.40;;;;;;7283756;19;20215;-79
2023/08/21 11:24:40;;;;;;;4.80;1.13;;;42.10;52.40;;;;;;7284766;19;20184;-78
2023/08/21 11:27:12;;;;;;;6.40;1.40;;;41.50;52.80;;;;;;7285500;19;20260;-77
2023/08/21 11:29:42;;;;;;;6.13;1.23;;;41.70;53.00;;;;;;7284258;19;20220;-78
2023/08/21 11:32:09;;;;;;;7.55;1.40;;;41.90;53.70;;;;;;7282316;19;20189;-78
2023/08/21 11:34:36;;;;;;;7.25;1.52;;;42.50;52.10;;;;;;7283488;19;20193;-78
2023/08/21 11:37:03;;;;;;;6.97;1.40;;;43.20;52.60;;;;;;7280414;19;20185;-77
2023/08/21 11:39:39;;;;;;;5.57;1.80;;;43.50;52.90;;;;;;7282904;19;20181;-78
2023/08/21 11:42:13;;;;;;;5.57;1.30;;;43.70;52.60;;;;;;7283914;19;20197;-78
2023/08/21 11:44:52;;;;;;;7.75;1.70;;;43.70;51.40;;;;;;7282764;19;20188;-78
2023/08/21 11:47:20;;;;;;;8.38;1.63;;;43.50;51.10;;;;;;7283914;19;20210;-78
2023/08/21 11:49:48;;;;;;;6.43;1.58;;;42.40;51.90;;;;;;7283985;19;20226;-78
2023/08/21 11:52:21;;;;;;;6.15;1.80;;;40.90;52.80;;;;;;7282412;19;20197;-78
2023/08/21 11:54:51;;;;;;;5.45;1.50;;;40.10;53.80;;;;;;7281954;19;20367;-78
2023/08/21 11:57:17;;;;;;;5.30;1.33;;;40.80;55.10;;;;;;7282463;19;20292;-78
2023/08/21 11:59:49;;;;;;;7.88;1.65;;;41.50;52.50;;;;;;7281073;19;20210;-77
2023/08/21 12:02:18;;;;;;;5.53;1.35;;;41.30;51.90;;;;;;7284389;19;20199;-77
2023/08/21 12:04:44;;;;;;;6.35;1.45;;;40.80;55.40;;;;;;7282491;19;20216;-77
2023/08/21 12:07:10;;;;;;;7.15;1.63;;;40.40;54.10;;;;;;7283966;19;20200;-77
2023/08/21 12:09:36;;;;;;;7.45;1.65;;;41.00;54.80;;;;;;7282294;19;20235;-78
2023/08/21 12:12:02;;;;;;;6.82;1.73;;;41.40;53.80;;;;;;7282223;19;20221;-78
2023/08/21 12:14:28;;;;;;;6.07;1.65;;;41.40;52.10;;;;;;7281473;19;20214;-78
2023/08/21 12:16:54;;;;;;;6.05;2.00;;;41.00;54.00;;;;;;7304833;19;20664;-78
2023/08/21 12:19:23;;;;;;;5.57;1.42;;;39.50;53.50;;;;;;7284320;19;20196;-78
2023/08/21 12:21:48;;;;;;;5.50;1.30;;;39.90;55.90;;;;;;7282526;19;20189;-79
2023/08/21 12:24:14;;;;;;;7.80;1.60;;;40.20;54.00;;;;;;7283184;19;20508;-79
2023/08/21 12:26:40;;;;;;;7.15;1.45;;;40.30;54.80;;;;;;7282229;19;20544;-77
2023/08/21 12:29:06;;;;;;;5.82;1.42;;;40.50;53.70;;;;;;7279964;19;20199;-76
2023/08/21 12:31:31;;;;;;;7.78;1.60;;;40.20;54.10;;;;;;7283325;19;20756;-76
2023/08/21 12:33:58;;;;;;;4.97;1.45;;;38.80;54.10;;;;;;7283195;19;20202;-75
2023/08/21 12:36:23;;;;;;;7.82;1.73;;;37.40;55.50;;;;;;7303299;19;20700;-76
2023/08/21 12:38:49;;;;;;;6.43;1.48;;;35.60;58.50;;;;;;7280716;19;20185;-77
2023/08/21 12:41:15;;;;;;;6.32;1.35;;;35.10;59.50;;;;;;7281849;19;20192;-76